Matamoros, Mexico

9:34 PM EST on August 31, 2015 (GMT -0500)
Brownsville-South Padre I International | | Change Station
CLOSE
Current Station
Airport
Location: Brownsville,
Elevation: 20 ft
Nearby Weather Stations

Elev 20 ft 25.91 °N, 97.42 °W | Updated 41 minutes ago

Partly Cloudy
Partly Cloudy
77 °F
Feels Like 77 °F
N
0
Wind Variable Wind from North

Today
High -- | Low -- °F
--% Chance of Precip.
Yesterday
High -- | Low -- °F
Precip. -- in
7:09 AM 7:50 PM
Waning Gibbous, 92% visible
Pressure 29.95 in
Visibility 10.0 miles
Clouds Few 8500 ft
Few 11000 ft
Dew Point 75 °F
Humidity 94%
Rainfall 2.02 in
Snow Depth Not available.
UV 0 out of 12
Pollen Not available.
Air Quality Not available.
Flu Activity Not available.
METAR KBRO 010153Z 00000KT 10SM FEW085 FEW110 25/24 A2995 RMK AO2 LTG DSNT SW RAE05 SLP141 P0000 T02500239
Pressure 29.95 in
Visibility 10.0 miles
Clouds Few 8500 ft
Few 11000 ft
Dew Point 75 °F
Humidity 94%
Rainfall 2.02 in
Snow Depth Not available.
UV 0 out of 12
Pollen Not available.
Air Quality Not available.
Flu Activity Not available.
METAR KBRO 010153Z 00000KT 10SM FEW085 FEW110 25/24 A2995 RMK AO2 LTG DSNT SW RAE05 SLP141 P0000 T02500239

10-Day Weather Forecast

×

Almanac

Astronomy

Aug. 31, 2015 Rise Set
Actual Time
Civil Twilight
Nautical Twilight
Astronomical Twilight
Moon
Length of Visible Light
Length of Day
Tomorrow will be .
, % of the Moon is Illuminated

Today's Extremes

Country Highs Country Lows

Community

WunderPhotos

Upload Photos

1,851,455 photos uploaded!

WunderBlogs® & News

Nearby

Air Quality

  Air Quality AQ Index Pollutant
Not available.

Snow Depth

Station Depth Elevation

Earthquake Activity

City Distance Mag. Time & Date
Minimum magnitude displayed is 2.5.

Coastal Water Temperatures

Place Temperature

Stations

Nearby Weather Stations

Station Location Temp. Windchill Dew Point Humidity Wind Precip. Elev Updated Type